KCGI/CGI METAR and TAF weather

Enter ICAO airport designator
Station Type Date Time Source
KCGI METAR 2020/07/13 13:53 UTC NOAA

KCGI 131353Z 04004KT 10SM CLR 26/21 A2996 RMK AO2 SLP141 T02610211


Station Type Date Time Source
KCGI Decoded METAR 2020/07/13 13:53 UTC NOAA

CAPE GIRARDEAU REGIONAL, MO, United States (KCGI) 37-14N 089-35W 102M
Jul 13, 2020 - 09:53 AM EDT / 2020.07.13 1353 UTC
Wind: from the NE (040 degrees) at 5 MPH (4 KT):0
Visibility: 10 mile(s):0
Sky conditions: clear
Temperature: 79.0 F (26.1 C)
Dew Point: 70.0 F (21.1 C)
Relative Humidity: 73%
Pressure (altimeter): 29.96 in. Hg (1014 hPa)
ob: KCGI 131353Z 04004KT 10SM CLR 26/21 A2996 RMK AO2 SLP141 T02610211
cycle: 14

Station Type Date Time Source
KCGI TAF 2020/07/13 12:22 UTC NOAA

TAF KCGI 131120Z 1312/1412 VRB03KT P6SM SKC
FM131700 03005KT P6SM FEW040
FM140000 VRB02KT P6SM SKC

Example: see airport list